Time;durP1;ratioP1;P1;durP2;ratioP2;P2;SDS_P1;SDS_P2;PMS_P1;PMS_P2;Temp;Humidity;BMP_temperature;BMP_pressure;BME280_temperature;BME280_humidity;BME280_pressure;Samples;Min_cycle;Max_cycle;Signal;HPM_P1;HPM_P2
2023/08/28 00:02:32;;;;;;;5.10;4.70;;;19.10;99.90;;;;;;5034103;28;20693;-77
2023/08/28 00:04:59;;;;;;;5.00;4.60;;;19.10;99.90;;;;;;5035006;28;20207;-77
2023/08/28 00:07:27;;;;;;;4.65;4.25;;;19.00;99.90;;;;;;5034126;28;20258;-77
2023/08/28 00:09:54;;;;;;;3.95;3.65;;;19.10;99.90;;;;;;5031221;28;20192;-77
2023/08/28 00:12:23;;;;;;;4.40;4.00;;;19.10;99.90;;;;;;5038910;28;20334;-77
2023/08/28 00:14:50;;;;;;;4.35;3.95;;;19.20;99.90;;;;;;5031281;28;20241;-77
2023/08/28 00:20:18;;;;;;;4.82;4.00;;;19.20;99.90;;;;;;5036671;28;20790;-76
2023/08/28 00:23:20;;;;;;;5.45;4.60;;;19.20;99.90;;;;;;5031353;28;20705;-77
2023/08/28 00:29:14;;;;;;;4.53;4.13;;;19.20;99.90;;;;;;5033681;28;20712;-77
2023/08/28 00:31:56;;;;;;;4.55;4.15;;;19.20;99.90;;;;;;5032985;28;20203;-77
2023/08/28 00:37:33;;;;;;;4.88;4.47;;;19.00;99.90;;;;;;5032760;28;20269;-77
2023/08/28 00:40:17;;;;;;;4.47;4.18;;;19.00;99.90;;;;;;5031984;28;20223;-76
2023/08/28 00:42:59;;;;;;;5.25;4.75;;;18.90;99.90;;;;;;5034695;28;20202;-77
2023/08/28 00:45:44;;;;;;;4.93;4.43;;;19.00;99.90;;;;;;5029428;28;20215;-78
2023/08/28 00:48:13;;;;;;;4.80;4.40;;;19.10;99.90;;;;;;5033280;28;20317;-77
2023/08/28 00:50:40;;;;;;;4.70;4.30;;;19.10;99.90;;;;;;5036793;28;20242;-77
2023/08/28 00:53:07;;;;;;;4.10;3.80;;;19.10;99.90;;;;;;5031610;28;20227;-77
2023/08/28 00:55:36;;;;;;;4.65;3.80;;;19.10;99.90;;;;;;5034731;28;20717;-78
2023/08/28 00:58:04;;;;;;;4.60;4.22;;;19.20;99.90;;;;;;5033542;28;20223;-77
2023/08/28 01:00:32;;;;;;;5.93;4.38;;;19.20;99.90;;;;;;5040811;28;20208;-77
2023/08/28 01:03:00;;;;;;;4.20;3.80;;;19.30;99.90;;;;;;5038715;28;20203;-77
2023/08/28 01:05:39;;;;;;;4.40;4.00;;;19.40;99.90;;;;;;5030969;28;20230;-77
2023/08/28 01:08:14;;;;;;;4.05;3.65;;;19.40;99.90;;;;;;5032678;28;20222;-78
2023/08/28 01:10:45;;;;;;;4.50;4.10;;;19.40;99.90;;;;;;5030405;28;20226;-77
2023/08/28 01:13:42;;;;;;;4.00;3.70;;;19.40;99.90;;;;;;5028488;28;20255;-78
2023/08/28 01:16:36;;;;;;;4.50;3.92;;;19.40;99.90;;;;;;5034286;28;20692;-77
2023/08/28 01:19:26;;;;;;;4.03;3.70;;;19.30;99.90;;;;;;5035003;28;20231;-76
2023/08/28 01:22:05;;;;;;;4.55;4.15;;;19.30;99.90;;;;;;5030498;28;20234;-77
2023/08/28 01:24:32;;;;;;;3.90;3.60;;;19.30;99.90;;;;;;5037698;28;20254;-77
2023/08/28 01:27:01;;;;;;;3.63;3.33;;;19.30;99.90;;;;;;5036088;28;20204;-76
2023/08/28 01:29:29;;;;;;;4.53;3.90;;;19.30;99.90;;;;;;5037777;28;20203;-77
2023/08/28 01:32:01;;;;;;;4.32;3.70;;;19.30;99.90;;;;;;5044016;28;20208;-77
2023/08/28 01:34:28;;;;;;;4.20;3.80;;;19.20;99.90;;;;;;5042198;28;20612;-76
2023/08/28 01:37:09;;;;;;;4.55;4.15;;;19.20;99.90;;;;;;5043717;28;20203;-78
2023/08/28 01:39:43;;;;;;;4.15;3.85;;;19.20;99.90;;;;;;5038235;28;20222;-77
2023/08/28 01:42:12;;;;;;;4.43;4.03;;;19.20;99.90;;;;;;5013991;28;20583;-77
2023/08/28 01:44:41;;;;;;;4.70;4.28;;;19.10;99.90;;;;;;5035374;28;20203;-77
2023/08/28 01:47:11;;;;;;;4.47;4.07;;;19.10;99.90;;;;;;5040517;28;20749;-78
2023/08/28 01:49:38;;;;;;;4.18;3.85;;;19.10;99.90;;;;;;5040706;28;20208;-78
2023/08/28 01:52:06;;;;;;;4.15;3.83;;;19.10;99.90;;;;;;5037738;28;20195;-76
2023/08/28 01:54:33;;;;;;;4.85;4.13;;;19.00;99.90;;;;;;5037920;28;20219;-76
2023/08/28 01:57:00;;;;;;;3.60;3.28;;;19.00;99.90;;;;;;5037144;28;20266;-77
2023/08/28 01:59:30;;;;;;;4.22;3.92;;;19.00;99.90;;;;;;5042606;28;20709;-80
2023/08/28 02:02:04;;;;;;;4.18;3.88;;;19.10;99.90;;;;;;5019768;28;20204;-78
2023/08/28 02:04:31;;;;;;;3.83;3.53;;;19.10;99.90;;;;;;5038511;28;20199;-77
2023/08/28 02:07:13;;;;;;;4.25;3.95;;;19.10;99.90;;;;;;5038907;28;20207;-77
2023/08/28 02:09:52;;;;;;;3.78;3.47;;;19.10;99.90;;;;;;5045957;28;20191;-77
2023/08/28 02:12:22;;;;;;;4.00;3.60;;;19.10;99.90;;;;;;5036339;28;20196;-77
2023/08/28 02:14:53;;;;;;;3.90;3.50;;;19.00;99.90;;;;;;5034962;28;20203;-77
2023/08/28 02:17:30;;;;;;;4.47;3.80;;;19.00;99.90;;;;;;5040860;28;20215;-77
2023/08/28 02:19:59;;;;;;;4.20;3.83;;;19.00;99.90;;;;;;5034777;28;20649;-77
2023/08/28 02:22:33;;;;;;;3.97;3.67;;;19.00;99.90;;;;;;5036556;28;20518;-77
2023/08/28 02:25:00;;;;;;;4.57;4.18;;;19.10;99.90;;;;;;5039308;28;20228;-77
2023/08/28 02:27:27;;;;;;;89.63;8.32;;;19.10;99.90;;;;;;5037814;28;20224;-76
2023/08/28 02:30:00;;;;;;;24.00;5.82;;;18.90;99.90;;;;;;5039693;28;20223;-77
2023/08/28 02:32:31;;;;;;;26.42;5.45;;;18.70;99.90;;;;;;5051331;28;20252;-77
2023/08/28 02:40:28;;;;;;;4.78;3.65;;;18.50;99.90;;;;;;5043411;28;20229;-77
2023/08/28 02:43:05;;;;;;;16.52;4.60;;;18.50;99.90;;;;;;5041728;28;20658;-76
2023/08/28 02:48:24;;;;;;;9.25;4.50;;;18.30;99.90;;;;;;5044044;28;20219;-77
2023/08/28 02:50:53;;;;;;;4.40;4.10;;;18.10;99.90;;;;;;5045446;28;20192;-78
2023/08/28 02:53:21;;;;;;;6.88;4.80;;;18.10;99.90;;;;;;5046049;28;20223;-77
2023/08/28 02:56:25;;;;;;;5.30;4.40;;;18.10;99.90;;;;;;5059513;28;20211;-77
2023/08/28 02:58:53;;;;;;;4.43;4.13;;;18.10;99.90;;;;;;5032476;28;20326;-76
2023/08/28 03:01:21;;;;;;;3.92;3.63;;;18.00;99.90;;;;;;5046026;28;20265;-78
2023/08/28 03:03:48;;;;;;;3.75;3.45;;;17.90;99.90;;;;;;5042291;28;20211;-77
2023/08/28 03:06:15;;;;;;;4.32;4.03;;;17.90;99.90;;;;;;5047653;28;20222;-77
2023/08/28 03:08:42;;;;;;;4.20;3.83;;;17.90;99.90;;;;;;5052718;28;20230;-77
2023/08/28 03:11:09;;;;;;;3.78;3.47;;;17.90;99.90;;;;;;5047795;28;20188;-78
2023/08/28 03:13:36;;;;;;;15.10;4.03;;;17.90;99.90;;;;;;5052910;28;20230;-78
2023/08/28 03:16:04;;;;;;;6.72;4.55;;;17.90;99.90;;;;;;5047100;28;20203;-77
2023/08/28 03:18:32;;;;;;;127.10;7.50;;;17.90;99.90;;;;;;5049486;28;20242;-77
2023/08/28 03:20:59;;;;;;;293.45;12.43;;;17.80;99.90;;;;;;5050444;28;20223;-77
2023/08/28 03:23:26;;;;;;;117.53;5.85;;;17.70;99.90;;;;;;5049229;28;20200;-77
2023/08/28 03:25:53;;;;;;;3.65;2.83;;;17.60;99.90;;;;;;5051323;28;20196;-81
2023/08/28 03:28:20;;;;;;;22.83;3.88;;;17.50;99.90;;;;;;5043143;28;20219;-83
2023/08/28 03:30:47;;;;;;;3.10;2.65;;;17.40;99.90;;;;;;5047679;28;20265;-77
2023/08/28 03:33:14;;;;;;;12.43;2.88;;;17.20;99.90;;;;;;5042807;28;20207;-85
2023/08/28 03:35:42;;;;;;;50.28;3.88;;;17.20;99.90;;;;;;5047009;28;20199;-81
2023/08/28 03:38:11;;;;;;;2.10;1.90;;;17.20;99.90;;;;;;5050433;28;20245;-85
2023/08/28 03:40:37;;;;;;;1.80;1.70;;;17.10;99.90;;;;;;5047874;28;20289;-81
2023/08/28 03:43:04;;;;;;;1.70;1.60;;;17.10;99.90;;;;;;5053536;28;20651;-86
2023/08/28 03:45:31;;;;;;;1.92;1.80;;;17.10;99.90;;;;;;5059967;28;20221;-80
2023/08/28 03:47:58;;;;;;;1.77;1.40;;;17.10;99.90;;;;;;5050385;28;20238;-84
2023/08/28 03:50:28;;;;;;;1.70;1.60;;;17.10;99.90;;;;;;5053163;28;20203;-83
2023/08/28 03:52:57;;;;;;;77.28;3.72;;;17.00;99.90;;;;;;5054333;28;20192;-83
2023/08/28 03:55:25;;;;;;;26.10;2.40;;;17.00;99.90;;;;;;5051972;28;20176;-86
2023/08/28 03:57:52;;;;;;;20.13;1.80;;;17.00;99.90;;;;;;5051003;28;20791;-82
2023/08/28 04:00:19;;;;;;;57.58;2.63;;;17.00;99.90;;;;;;5048976;28;20231;-80
2023/08/28 04:02:47;;;;;;;312.83;8.07;;;17.00;99.90;;;;;;5048041;28;20196;-85
2023/08/28 04:05:16;;;;;;;63.15;3.00;;;17.00;99.90;;;;;;5049589;28;20234;-83
2023/08/28 04:07:43;;;;;;;181.60;5.30;;;16.90;99.90;;;;;;5052773;28;20372;-87
2023/08/28 04:10:12;;;;;;;9.77;1.23;;;16.90;99.90;;;;;;5053045;28;20184;-88
2023/08/28 04:12:39;;;;;;;6.25;1.20;;;16.80;99.90;;;;;;5049584;28;20208;-83
2023/08/28 04:15:08;;;;;;;1.13;1.10;;;16.70;99.90;;;;;;5051515;28;20195;-87
2023/08/28 04:17:35;;;;;;;1.02;1.02;;;16.60;99.90;;;;;;5053213;28;20211;-78
2023/08/28 04:20:09;;;;;;;1.10;1.10;;;16.60;99.90;;;;;;5048585;28;20580;-86
2023/08/28 04:22:37;;;;;;;0.93;0.93;;;16.50;99.90;;;;;;5048403;28;20227;-80
2023/08/28 04:25:05;;;;;;;1.15;1.05;;;16.50;99.90;;;;;;5047005;28;20215;-83
2023/08/28 04:27:33;;;;;;;1.00;1.00;;;16.50;99.90;;;;;;5046437;28;20246;-84
2023/08/28 04:30:00;;;;;;;1.48;1.15;;;16.50;99.90;;;;;;5049100;28;20200;-85
2023/08/28 04:32:27;;;;;;;1.05;1.05;;;16.50;99.90;;;;;;5043550;28;20200;-80
2023/08/28 04:34:54;;;;;;;0.90;0.90;;;16.40;99.90;;;;;;5040664;28;20202;-82
2023/08/28 04:37:21;;;;;;;0.82;0.82;;;16.30;99.90;;;;;;5047447;28;20228;-79
2023/08/28 04:39:48;;;;;;;1.23;0.90;;;16.30;99.90;;;;;;5045131;28;20817;-84
2023/08/28 04:42:15;;;;;;;0.90;0.90;;;16.30;99.90;;;;;;5044300;28;20191;-80
2023/08/28 04:44:44;;;;;;;0.90;0.90;;;16.30;99.90;;;;;;5035935;28;20594;-81
2023/08/28 04:47:12;;;;;;;1.02;1.00;;;16.30;99.90;;;;;;5031713;28;20218;-76
2023/08/28 04:49:39;;;;;;;1.00;1.00;;;16.30;99.90;;;;;;5036747;28;20598;-79
2023/08/28 04:52:07;;;;;;;0.82;0.82;;;16.30;99.90;;;;;;5034372;28;20748;-80
2023/08/28 04:54:34;;;;;;;0.90;0.90;;;16.30;99.90;;;;;;5017125;28;20199;-82
2023/08/28 04:57:01;;;;;;;0.90;0.90;;;16.30;99.90;;;;;;5037487;28;20196;-80
2023/08/28 04:59:29;;;;;;;1.00;1.00;;;16.40;99.90;;;;;;5036894;28;20203;-79
2023/08/28 05:01:57;;;;;;;1.10;1.00;;;16.30;99.90;;;;;;5035586;28;20208;-78
2023/08/28 05:04:24;;;;;;;1.20;1.10;;;16.20;99.90;;;;;;5034884;28;20722;-82
2023/08/28 05:06:51;;;;;;;0.93;0.93;;;16.20;99.90;;;;;;5041783;28;20195;-82
2023/08/28 05:09:18;;;;;;;1.20;1.10;;;16.10;99.90;;;;;;5036228;28;20278;-78
2023/08/28 05:11:45;;;;;;;0.80;0.80;;;16.20;99.90;;;;;;5038505;28;20246;-78
2023/08/28 05:14:12;;;;;;;0.90;0.90;;;16.20;99.90;;;;;;5034110;28;20829;-80
2023/08/28 05:16:38;;;;;;;1.00;1.00;;;16.20;99.90;;;;;;5038158;28;20202;-79
2023/08/28 05:19:07;;;;;;;1.30;1.20;;;16.20;99.90;;;;;;5032708;28;20219;-81
2023/08/28 05:21:34;;;;;;;1.20;1.10;;;16.20;99.90;;;;;;5041264;28;20291;-78
2023/08/28 05:24:01;;;;;;;1.30;1.20;;;16.20;99.90;;;;;;5042094;28;20223;-77
2023/08/28 05:26:28;;;;;;;1.08;1.08;;;16.20;99.90;;;;;;5044725;28;20249;-83
2023/08/28 05:28:56;;;;;;;1.02;1.00;;;16.30;99.90;;;;;;5041403;28;20219;-77
2023/08/28 05:31:23;;;;;;;1.20;1.20;;;16.30;99.90;;;;;;5043041;28;20187;-83
2023/08/28 05:33:49;;;;;;;1.10;1.10;;;16.50;99.90;;;;;;5040973;28;20204;-84
2023/08/28 05:36:18;;;;;;;1.10;1.00;;;16.60;99.90;;;;;;5043651;28;20207;-77
2023/08/28 05:38:45;;;;;;;0.90;0.90;;;16.60;99.90;;;;;;5037881;28;20253;-77
2023/08/28 05:41:12;;;;;;;0.90;0.90;;;16.70;99.90;;;;;;5041763;28;20246;-80
2023/08/28 05:43:39;;;;;;;1.52;1.10;;;16.70;99.90;;;;;;5041130;28;20254;-77
2023/08/28 05:46:06;;;;;;;1.00;1.00;;;16.80;99.90;;;;;;5036916;28;20200;-84
2023/08/28 05:48:33;;;;;;;0.95;0.85;;;16.90;99.90;;;;;;5035213;28;20674;-75
2023/08/28 05:51:00;;;;;;;0.90;0.90;;;17.00;99.90;;;;;;5032947;28;20609;-75
2023/08/28 05:53:29;;;;;;;1.55;0.93;;;17.00;99.90;;;;;;5028762;28;20254;-77
2023/08/28 05:55:56;;;;;;;0.90;0.90;;;16.90;99.90;;;;;;5030627;28;20207;-78
2023/08/28 05:58:23;;;;;;;0.90;0.90;;;16.80;99.90;;;;;;5030424;28;20290;-81
2023/08/28 06:00:50;;;;;;;1.38;1.27;;;16.70;99.90;;;;;;5015438;28;20791;-77
2023/08/28 06:03:17;;;;;;;1.13;1.02;;;16.70;99.90;;;;;;5021113;28;20245;-77
2023/08/28 06:05:44;;;;;;;0.90;0.90;;;16.60;99.90;;;;;;5023982;28;20250;-78
2023/08/28 06:08:11;;;;;;;1.40;1.30;;;16.50;99.90;;;;;;5027203;28;20259;-80
2023/08/28 06:10:40;;;;;;;1.00;1.00;;;16.50;99.90;;;;;;5027100;28;20213;-85
2023/08/28 06:13:07;;;;;;;1.00;1.00;;;16.60;99.90;;;;;;5022593;28;20237;-81
2023/08/28 06:15:34;;;;;;;1.10;1.00;;;16.70;99.90;;;;;;5025841;28;20618;-79
2023/08/28 06:18:02;;;;;;;1.15;1.02;;;16.80;99.90;;;;;;5026265;28;20700;-75
2023/08/28 06:20:29;;;;;;;1.20;1.10;;;16.80;99.90;;;;;;5023420;28;20836;-78
2023/08/28 06:22:56;;;;;;;1.20;1.10;;;16.80;99.90;;;;;;5027559;28;20207;-74
2023/08/28 06:25:23;;;;;;;1.48;1.30;;;16.60;99.90;;;;;;5028992;28;20235;-78
2023/08/28 06:27:51;;;;;;;1.10;1.00;;;16.60;99.90;;;;;;5016557;28;20944;-77
2023/08/28 06:30:19;;;;;;;1.30;1.05;;;16.70;99.90;;;;;;5021666;28;20215;-75
2023/08/28 06:32:46;;;;;;;0.90;0.90;;;16.70;99.90;;;;;;5022913;28;20318;-80
2023/08/28 06:35:13;;;;;;;0.77;0.77;;;16.80;99.90;;;;;;5021627;28;20674;-75
2023/08/28 06:37:40;;;;;;;34.45;2.13;;;16.90;99.90;;;;;;5025404;28;20897;-77
2023/08/28 06:40:08;;;;;;;35.20;1.70;;;16.80;99.90;;;;;;5021863;28;20198;-75
2023/08/28 06:42:35;;;;;;;0.90;0.90;;;16.70;99.90;;;;;;5023511;28;20241;-78
2023/08/28 06:45:05;;;;;;;4.28;0.98;;;16.70;99.90;;;;;;5021851;28;20235;-76
2023/08/28 06:47:31;;;;;;;1.17;0.98;;;16.70;99.90;;;;;;5018136;28;20251;-77
2023/08/28 06:49:58;;;;;;;1.48;1.38;;;16.70;99.90;;;;;;5018796;28;20231;-75
2023/08/28 06:52:25;;;;;;;2.42;1.23;;;16.70;99.90;;;;;;5017028;28;20680;-77
2023/08/28 06:54:52;;;;;;;3.42;1.27;;;16.80;99.90;;;;;;5021985;28;20262;-78
2023/08/28 06:57:20;;;;;;;1.80;1.45;;;16.80;99.90;;;;;;5024350;28;20219;-76
2023/08/28 06:59:48;;;;;;;50.08;3.00;;;16.80;99.90;;;;;;5023470;28;20220;-77
2023/08/28 07:02:17;;;;;;;1.60;1.50;;;16.80;99.90;;;;;;5020545;28;20209;-76
2023/08/28 07:04:44;;;;;;;2.10;1.90;;;16.70;99.90;;;;;;5022045;28;20206;-76
2023/08/28 07:07:11;;;;;;;1.30;1.30;;;16.70;99.90;;;;;;5024397;28;20988;-75
2023/08/28 07:09:39;;;;;;;1.13;1.13;;;16.70;99.90;;;;;;5025220;28;20256;-79
2023/08/28 07:12:06;;;;;;;0.90;0.90;;;16.80;99.90;;;;;;5023261;28;20200;-79
2023/08/28 07:14:33;;;;;;;0.90;0.90;;;16.90;99.90;;;;;;5023470;28;20743;-75
2023/08/28 07:17:01;;;;;;;1.27;1.17;;;17.10;99.90;;;;;;5022010;28;20931;-77
2023/08/28 07:19:29;;;;;;;1.40;1.30;;;17.20;99.90;;;;;;5025725;28;20206;-77
2023/08/28 07:21:59;;;;;;;0.90;0.90;;;17.10;99.90;;;;;;5023122;28;20218;-78
2023/08/28 07:24:26;;;;;;;0.88;0.88;;;17.10;99.90;;;;;;5021396;28;20208;-78
2023/08/28 07:26:53;;;;;;;1.00;1.00;;;17.10;99.90;;;;;;5026292;28;20257;-75
2023/08/28 07:29:20;;;;;;;0.80;0.80;;;17.10;99.90;;;;;;5020099;28;20207;-80
2023/08/28 07:31:47;;;;;;;1.38;1.27;;;17.10;99.90;;;;;;5024820;28;20196;-77
2023/08/28 07:34:14;;;;;;;29.67;2.20;;;17.20;99.90;;;;;;5024356;28;20211;-76
2023/08/28 07:36:44;;;;;;;1.00;1.00;;;17.20;99.90;;;;;;5025003;28;20231;-76
2023/08/28 07:39:11;;;;;;;56.17;2.80;;;17.20;99.90;;;;;;5019249;28;20673;-78
2023/08/28 07:41:38;;;;;;;5.88;1.20;;;17.10;99.90;;;;;;5025816;28;20214;-77
2023/08/28 07:44:05;;;;;;;3.03;1.23;;;17.10;99.90;;;;;;5025316;28;20203;-77
2023/08/28 07:46:32;;;;;;;1.35;1.27;;;17.10;99.90;;;;;;5026150;28;20273;-83
2023/08/28 07:48:59;;;;;;;1.42;1.33;;;17.10;99.90;;;;;;5020855;28;20214;-79
2023/08/28 07:51:26;;;;;;;1.00;1.00;;;17.00;99.90;;;;;;5025944;28;21040;-77
2023/08/28 07:53:55;;;;;;;1.88;1.42;;;17.10;99.90;;;;;;5024947;28;20234;-74
2023/08/28 07:56:22;;;;;;;1.42;1.33;;;17.10;99.90;;;;;;5026509;28;20203;-77
2023/08/28 07:58:49;;;;;;;1.45;1.35;;;17.10;99.90;;;;;;5031405;28;20223;-80
2023/08/28 08:01:16;;;;;;;1.13;1.10;;;17.00;99.90;;;;;;5021003;28;20263;-78
2023/08/28 08:03:43;;;;;;;2.65;1.20;;;16.90;99.90;;;;;;5029101;28;20226;-77
2023/08/28 08:06:10;;;;;;;1.00;1.00;;;16.90;99.90;;;;;;5021154;28;20208;-75
2023/08/28 08:08:37;;;;;;;1.10;1.10;;;17.00;99.90;;;;;;5029257;28;20269;-75
2023/08/28 08:11:06;;;;;;;1.00;1.00;;;17.00;99.90;;;;;;5027152;28;20246;-77
2023/08/28 08:13:33;;;;;;;1.00;1.00;;;17.10;99.90;;;;;;5026684;28;20227;-76
2023/08/28 08:15:59;;;;;;;0.95;0.95;;;17.20;99.90;;;;;;5023781;28;20251;-78
2023/08/28 08:18:26;;;;;;;1.00;1.00;;;17.40;99.90;;;;;;5030280;28;20255;-76
2023/08/28 08:20:53;;;;;;;1.00;1.00;;;17.50;99.90;;;;;;5027616;28;20271;-75
2023/08/28 08:23:20;;;;;;;1.48;1.15;;;17.50;99.90;;;;;;5021156;28;20200;-76
2023/08/28 08:25:47;;;;;;;1.00;1.00;;;17.60;99.90;;;;;;5020380;28;20211;-74
2023/08/28 08:28:16;;;;;;;0.98;0.98;;;17.70;99.90;;;;;;5026454;28;20972;-75
2023/08/28 08:30:43;;;;;;;1.00;0.90;;;17.80;99.90;;;;;;5027631;28;20242;-77
2023/08/28 08:33:10;;;;;;;0.93;0.93;;;17.90;99.90;;;;;;5022347;28;20199;-76
2023/08/28 08:35:37;;;;;;;16.85;2.15;;;17.80;99.90;;;;;;5018775;28;20199;-76
2023/08/28 08:38:05;;;;;;;4.97;1.33;;;17.70;99.90;;;;;;5022254;28;20219;-73
2023/08/28 08:40:36;;;;;;;60.47;2.97;;;17.60;99.90;;;;;;5024314;28;20195;-77
2023/08/28 08:43:03;;;;;;;0.98;0.98;;;17.50;99.90;;;;;;5020394;28;20205;-77
2023/08/28 08:45:31;;;;;;;0.90;0.90;;;17.40;99.90;;;;;;5022756;28;20208;-77
2023/08/28 08:47:59;;;;;;;1.70;1.05;;;17.50;99.90;;;;;;5025471;28;20235;-74
2023/08/28 08:50:28;;;;;;;0.90;0.90;;;17.60;99.90;;;;;;5026112;28;20298;-75
2023/08/28 08:52:59;;;;;;;1.52;0.85;;;17.80;99.90;;;;;;5023757;28;20191;-77
2023/08/28 08:55:31;;;;;;;0.77;0.77;;;18.00;99.90;;;;;;5025674;28;20252;-74
2023/08/28 08:58:03;;;;;;;0.90;0.90;;;18.30;99.90;;;;;;5026047;28;20352;-75
2023/08/28 09:00:38;;;;;;;0.90;0.90;;;18.60;99.90;;;;;;5022334;28;20780;-75
2023/08/28 09:03:06;;;;;;;1.13;1.02;;;18.80;99.90;;;;;;5020871;28;20198;-75
2023/08/28 09:05:33;;;;;;;0.93;0.93;;;19.00;99.90;;;;;;5026280;28;20230;-76
2023/08/28 09:08:03;;;;;;;1.10;1.00;;;19.20;99.90;;;;;;5023208;28;20957;-75
2023/08/28 09:10:30;;;;;;;0.85;0.85;;;19.30;99.90;;;;;;5023205;28;20292;-75
2023/08/28 09:12:57;;;;;;;1.02;1.02;;;19.60;99.90;;;;;;5023347;28;20183;-75
2023/08/28 09:15:25;;;;;;;0.80;0.80;;;19.90;99.90;;;;;;5015896;28;20254;-74
2023/08/28 09:17:54;;;;;;;1.08;1.00;;;20.20;99.90;;;;;;5017230;28;20227;-73
2023/08/28 09:20:22;;;;;;;0.98;0.98;;;20.30;99.90;;;;;;5016120;28;20200;-74
2023/08/28 09:22:50;;;;;;;0.90;0.90;;;20.70;99.90;;;;;;5017446;28;20215;-73
2023/08/28 09:25:19;;;;;;;0.90;0.90;;;21.00;99.90;;;;;;5018075;28;20889;-74
2023/08/28 09:27:47;;;;;;;1.05;1.05;;;21.00;99.90;;;;;;5015458;28;20306;-74
2023/08/28 09:30:27;;;;;;;2.63;1.20;;;21.00;99.90;;;;;;5020765;28;20930;-74
2023/08/28 09:32:58;;;;;;;1.50;0.90;;;21.40;99.90;;;;;;5023034;28;20225;-73
2023/08/28 09:35:27;;;;;;;1.27;0.93;;;21.80;99.90;;;;;;5017230;28;20294;-74
2023/08/28 09:37:58;;;;;;;0.93;0.90;;;21.50;99.90;;;;;;5018851;28;20853;-73
2023/08/28 09:40:30;;;;;;;1.00;1.00;;;21.70;99.90;;;;;;5017522;28;20191;-75
2023/08/28 09:42:58;;;;;;;1.55;1.00;;;22.30;99.90;;;;;;5016400;28;20314;-74
2023/08/28 09:45:30;;;;;;;1.05;1.05;;;22.50;99.90;;;;;;5021172;28;20300;-75
2023/08/28 09:47:59;;;;;;;1.05;1.05;;;22.30;99.90;;;;;;5017675;28;20297;-73
2023/08/28 09:50:29;;;;;;;0.90;0.90;;;21.90;99.90;;;;;;5018213;28;20266;-74
2023/08/28 09:53:05;;;;;;;0.90;0.90;;;21.50;99.90;;;;;;5015023;28;20199;-76
2023/08/28 09:55:32;;;;;;;1.08;1.08;;;21.10;99.90;;;;;;5021421;28;20203;-74
2023/08/28 09:57:59;;;;;;;1.23;1.13;;;20.70;99.90;;;;;;5016027;28;20227;-75
2023/08/28 10:00:26;;;;;;;1.10;1.10;;;20.50;99.90;;;;;;5016867;28;20254;-75
2023/08/28 10:02:55;;;;;;;0.90;0.90;;;20.40;99.90;;;;;;5019327;28;20243;-75
2023/08/28 10:05:24;;;;;;;1.15;1.05;;;20.60;99.90;;;;;;5018053;28;20670;-76
2023/08/28 10:07:57;;;;;;;0.82;0.82;;;20.80;99.90;;;;;;5018776;28;20215;-75
2023/08/28 10:10:26;;;;;;;1.00;0.88;;;21.00;99.90;;;;;;5025339;28;20987;-75
2023/08/28 10:12:53;;;;;;;1.58;1.17;;;21.60;99.90;;;;;;5024429;28;20223;-74
2023/08/28 10:15:20;;;;;;;1.20;1.10;;;22.30;99.90;;;;;;5020233;28;20249;-76
2023/08/28 10:17:48;;;;;;;0.80;0.80;;;22.90;99.90;;;;;;5022865;28;20249;-76
2023/08/28 10:20:18;;;;;;;0.90;0.90;;;23.10;99.90;;;;;;5035624;28;20241;-76
2023/08/28 10:22:47;;;;;;;1.42;1.33;;;23.40;99.90;;;;;;5031705;28;20219;-75
2023/08/28 10:25:14;;;;;;;2.10;1.60;;;23.70;99.90;;;;;;5019872;28;20276;-75
2023/08/28 10:27:42;;;;;;;1.50;1.30;;;24.10;99.90;;;;;;5020623;28;20223;-75
2023/08/28 10:30:10;;;;;;;1.15;1.15;;;23.90;99.90;;;;;;5018780;28;20774;-75
2023/08/28 10:32:38;;;;;;;1.17;1.08;;;23.80;99.90;;;;;;5015938;28;20324;-75
2023/08/28 10:35:07;;;;;;;1.80;1.40;;;23.90;99.90;;;;;;5016252;28;20289;-75
2023/08/28 10:37:35;;;;;;;1.27;1.00;;;23.90;99.90;;;;;;5021074;28;20934;-75
2023/08/28 10:40:05;;;;;;;0.95;0.90;;;23.70;99.90;;;;;;5020709;28;20195;-76
2023/08/28 10:42:32;;;;;;;1.25;0.95;;;23.20;99.90;;;;;;5018116;28;20310;-77
2023/08/28 10:45:00;;;;;;;1.23;1.08;;;22.80;99.90;;;;;;5015077;28;20286;-75
2023/08/28 10:47:27;;;;;;;1.70;1.02;;;22.80;99.90;;;;;;5018982;28;20227;-76
2023/08/28 10:49:55;;;;;;;1.00;1.00;;;22.80;99.90;;;;;;5023893;28;20202;-75
2023/08/28 10:52:23;;;;;;;0.82;0.82;;;22.70;99.90;;;;;;5010323;28;20295;-75
2023/08/28 10:54:51;;;;;;;0.90;0.90;;;22.60;99.90;;;;;;5017964;28;20214;-75
2023/08/28 10:57:27;;;;;;;0.90;0.90;;;22.30;99.90;;;;;;5017014;28;20223;-75
2023/08/28 10:59:55;;;;;;;0.80;0.80;;;22.10;99.90;;;;;;5020114;28;20786;-75
2023/08/28 11:02:22;;;;;;;0.80;0.80;;;21.80;99.90;;;;;;5014278;28;20846;-77
2023/08/28 11:04:49;;;;;;;1.30;1.20;;;21.60;99.90;;;;;;5021463;28;20190;-75
2023/08/28 11:07:44;;;;;;;0.90;0.90;;;21.90;99.90;;;;;;5016186;28;20276;-76
2023/08/28 11:10:21;;;;;;;2.67;1.00;;;22.30;99.90;;;;;;5021226;28;20210;-76
2023/08/28 11:12:54;;;;;;;0.88;0.88;;;22.60;99.90;;;;;;5021607;28;20230;-77
2023/08/28 11:15:29;;;;;;;1.20;1.10;;;22.70;99.90;;;;;;5016400;28;20203;-75
2023/08/28 11:18:27;;;;;;;1.05;1.05;;;22.70;99.90;;;;;;5020758;28;20215;-75
2023/08/28 11:20:54;;;;;;;1.10;1.00;;;22.60;99.90;;;;;;5007710;28;20262;-74
2023/08/28 11:23:23;;;;;;;2.05;1.00;;;22.40;99.90;;;;;;5016027;28;20235;-75
2023/08/28 11:25:51;;;;;;;1.10;1.00;;;22.30;99.90;;;;;;5016841;28;20204;-76
2023/08/28 11:28:27;;;;;;;1.35;1.25;;;22.10;99.90;;;;;;5015951;28;20246;-76
2023/08/28 11:30:59;;;;;;;1.00;1.00;;;21.90;99.90;;;;;;5016149;28;20392;-74
2023/08/28 11:33:27;;;;;;;1.20;1.10;;;21.90;99.90;;;;;;5006445;28;20696;-77
2023/08/28 11:35:59;;;;;;;2.03;1.10;;;21.80;99.90;;;;;;5008446;28;20238;-77
2023/08/28 11:38:26;;;;;;;0.98;0.98;;;21.60;99.90;;;;;;5015426;28;20342;-77
2023/08/28 11:40:55;;;;;;;1.00;1.00;;;21.50;99.90;;;;;;5017723;28;20199;-76
2023/08/28 11:43:22;;;;;;;1.38;1.27;;;21.50;99.90;;;;;;5007700;28;20623;-77
2023/08/28 11:45:57;;;;;;;1.52;1.00;;;21.50;99.90;;;;;;5019394;28;20811;-79
2023/08/28 11:48:24;;;;;;;1.20;1.10;;;21.50;99.90;;;;;;5018870;28;20736;-78
2023/08/28 11:50:58;;;;;;;1.40;1.30;;;21.40;99.90;;;;;;5017771;28;20289;-78
2023/08/28 11:53:30;;;;;;;0.98;0.98;;;21.30;99.90;;;;;;5015748;28;20298;-76
2023/08/28 11:55:59;;;;;;;2.08;1.30;;;21.50;99.90;;;;;;5011012;28;20207;-78
2023/08/28 11:58:26;;;;;;;1.73;1.15;;;21.70;99.90;;;;;;5020145;28;20231;-76
2023/08/28 12:00:55;;;;;;;2.30;1.20;;;21.90;99.90;;;;;;5020686;28;20794;-76
2023/08/28 12:03:22;;;;;;;1.33;1.23;;;22.20;99.90;;;;;;5010503;28;20285;-75
2023/08/28 12:05:49;;;;;;;2.10;1.00;;;22.60;99.90;;;;;;5018350;28;20231;-74
2023/08/28 12:08:16;;;;;;;1.55;1.08;;;22.70;99.90;;;;;;5022680;28;20231;-75
2023/08/28 12:10:44;;;;;;;1.77;1.50;;;22.70;99.90;;;;;;5019708;28;20954;-75
2023/08/28 12:13:11;;;;;;;1.45;1.20;;;22.60;99.90;;;;;;5021051;28;20206;-75
2023/08/28 12:15:38;;;;;;;1.38;1.20;;;22.60;99.90;;;;;;5013047;28;20200;-75
2023/08/28 12:18:08;;;;;;;1.30;1.20;;;22.70;99.90;;;;;;5028045;28;20220;-75
2023/08/28 12:20:37;;;;;;;1.63;1.48;;;22.60;99.90;;;;;;5005608;28;20232;-74
2023/08/28 12:23:04;;;;;;;1.40;1.30;;;22.30;99.90;;;;;;5003546;28;20224;-76
2023/08/28 12:25:34;;;;;;;1.25;1.10;;;22.00;99.90;;;;;;5000211;28;21303;-75
2023/08/28 12:28:08;;;;;;;1.40;1.30;;;21.80;99.90;;;;;;5014140;28;20234;-75
2023/08/28 12:30:39;;;;;;;1.25;0.95;;;21.60;99.90;;;;;;5011494;28;20281;-75
2023/08/28 12:33:08;;;;;;;1.10;1.10;;;21.60;99.90;;;;;;5017278;28;20199;-75
2023/08/28 12:35:39;;;;;;;1.05;1.02;;;21.80;99.90;;;;;;5012037;28;20330;-75
2023/08/28 12:38:06;;;;;;;1.63;1.42;;;22.50;99.90;;;;;;5016148;28;20345;-75
2023/08/28 12:40:35;;;;;;;1.40;1.20;;;22.60;99.90;;;;;;5012554;28;20208;-73
2023/08/28 12:43:03;;;;;;;1.42;1.15;;;22.70;99.90;;;;;;5007973;28;20212;-75
2023/08/28 12:45:32;;;;;;;1.00;1.00;;;22.40;99.90;;;;;;5012589;28;20290;-75
2023/08/28 12:48:00;;;;;;;1.10;1.00;;;22.20;99.90;;;;;;5010211;28;20227;-74
2023/08/28 12:50:28;;;;;;;1.05;1.05;;;22.00;99.90;;;;;;5011714;28;20341;-76
2023/08/28 12:52:55;;;;;;;2.00;1.02;;;21.70;99.90;;;;;;5009661;28;20281;-75
2023/08/28 12:55:25;;;;;;;1.00;0.90;;;21.50;99.90;;;;;;5011432;28;20231;-75
2023/08/28 12:57:51;;;;;;;1.50;1.25;;;21.50;99.90;;;;;;5015194;28;20235;-74
2023/08/28 13:00:20;;;;;;;1.85;1.05;;;21.70;99.90;;;;;;5019771;28;20231;-74
2023/08/28 13:02:46;;;;;;;1.00;0.90;;;21.80;99.90;;;;;;5017581;28;20228;-75
2023/08/28 13:05:13;;;;;;;0.75;0.75;;;22.10;99.90;;;;;;5013648;28;20290;-75
2023/08/28 13:07:42;;;;;;;0.85;0.85;;;22.30;99.90;;;;;;5017782;28;20282;-75
2023/08/28 13:10:09;;;;;;;0.80;0.80;;;22.50;99.90;;;;;;5015299;28;20290;-76
2023/08/28 13:12:36;;;;;;;0.90;0.90;;;22.60;99.90;;;;;;5012116;28;20234;-75
2023/08/28 13:15:04;;;;;;;0.85;0.80;;;22.60;99.90;;;;;;5008780;28;20760;-74